Terminal Aerodrome Forecast
Issued by NWS

Home | Current Version | Previous Version | Text Only | Print | Product List | Glossary Off
Versions: 1 2 3 4 5 6 7 8 9 10 11 12 13 14 15 16 17 18 19 20 21

000
FTUS43 KMPX 060520
TAFAXN
TAF
KAXN 060520Z 0606/0706 13014G22KT P6SM OVC015
     FM060800 12014KT P6SM OVC008
     FM061200 13014G20KT 5SM BR VCSH SCT008 OVC015
     FM061600 13014G22KT P6SM SCT012 BKN025 OVC040
     FM062100 12014G20KT 6SM -SHRA VCTS SCT025 OVC050CB=

USA.gov is the U.S. government's official web portal to all federal, state and local government web resources and services.